Startpagina
METAR-TAF:

METAR-TAF

Vliegvelden :

Luchthaven Ivato

Antananarivo, Madagaskar

breedte: 18-48S, lengte: 047-29E, hoogte: 1279 m

Actueel weer

Dit bericht is 23 minuten geleden gemaakt, om 07:00 UTC
Wind 6 kt uit het zuidoosten, variërend tussen het oosten en het zuidzuidwesten
Temperatuur 21°C
Vochtigheid 49%
Druk 1024 hPa
Zicht 10 km of meer
Weinig wolken op 2000 ft

METAR: FMMI 220700Z 14006KT 080V210 9999 FEW020 21/10 Q1024 NOSIG

Tijdstip: 10:23 (07:23 UTC)

Verwachting

Dit bericht is 2 uur en het 23 minuten geleden gemaakt, om 05:00 UTC
Verwachting geldig van 22 om 06 UTC tot 23 om 12 UTC
Wind 6 kt uit variabele richting
Zicht 10 km of meer
Weinig wolken op 2000 ft
Kans 30%
van 23 om 01 UTC tot 23 om 06 UTC
Zicht: 1500 m
Gebroken wolken op 400 ft
nevel

TAF: FMMI 220500Z 2206/2312 VRB06KT 9999 FEW020 PROB30 2301/2306 1500 BR BKN004

Waarnemingen en weersverwachtingen van meer dan 4000 vliegvelden (METAR en TAF).

De beschikbare stations zijn de gele en rode punten op de kaart.

Ga met uw muis naar het station om de naam te zien.

Klik dan om waarnemingen en weersverwachtingen te zien.

kaart wijzigen: klik op de groene knoppen met een zwart kruis om in te zoomen, op de groene knop met een streepje om uit te zoomen of op de groene pijlen voor aangrenzende kaarten.


METAR-TAF: